Gorham, NH (03581)

11:55 AM EDT on July 23, 2016 (GMT -0400)
Norwegian village | | Change Station

Elev 1099 ft 44.48 °N, 71.17 °W | Updated 12 seconds ago

Scattered Clouds
Scattered Clouds
83.5 °F
Feels Like 85 °F
N
3.8
Wind Variable Wind from South
Gusts 4.5 mph

Today
High -- | Low -- °F
--% Chance of Precip.
Yesterday
High -- | Low -- °F
Precip. -- in
Pressure 29.79 in
Visibility 10.0 miles
Clouds Few 2900 ft
Scattered Clouds 3800 ft
Heat Index 85 °F
Dew Point 64 °F
Humidity 52%
Rainfall 0.30 in
Snow Depth Not available.
5:23 AM 8:19 PM
Waning Gibbous, 84% visible
METAR KHIE 231552Z AUTO 21007KT 10SM FEW029 SCT038 26/18 A2980 RMK AO2 SLP087 T02560178
Pressure 29.79 in
Visibility 10.0 miles
Clouds Few 2900 ft
Scattered Clouds 3800 ft
Heat Index 85 °F
Dew Point 64 °F
Humidity 52%
Rainfall 0.30 in
Snow Depth Not available.
5:23 AM 8:19 PM
Waning Gibbous, 84% visible
METAR KHIE 231552Z AUTO 21007KT 10SM FEW029 SCT038 26/18 A2980 RMK AO2 SLP087 T02560178

10-Day Weather Forecast

Almanac

Astronomy

Jul. 23, 2016 Rise Set
Actual Time
Civil Twilight
Nautical Twilight
Astronomical Twilight
Moon
Length of Visible Light
Length of Day
Tomorrow will be .
, % of the Moon is Illuminated

Today's Extremes

State Highs State Lows

Community

WunderPhotos

Upload Photos

1,926,848 photos uploaded!

WunderBlog® & News

Nearby

Air Quality

  Air Quality AQ Index Pollutant
Not available.

Snow Depth

Station Depth Elevation

Earthquake Activity

City Distance Mag. Time & Date
Minimum magnitude displayed is 2.5.

Coastal Water Temperatures

Place Temperature

Stations

Nearby Weather Stations

Station Location Temp. Windchill Dew Point Humidity Wind Precip. Elev Updated Type
                   

Watches & Warnings

There are currently no watches in effect.